Time;durP1;ratioP1;P1;durP2;ratioP2;P2;SDS_P1;SDS_P2;PMS_P1;PMS_P2;Temp;Humidity;BMP_temperature;BMP_pressure;BME280_temperature;BME280_humidity;BME280_pressure;Samples;Min_cycle;Max_cycle;Signal;HPM_P1;HPM_P2
2022/10/19 00:01:03;;;;;;;6.00;4.93;;;;;;;8.15;91.68;101529.34;5024319;28;20506;-83
2022/10/19 00:03:29;;;;;;;9.30;5.00;;;;;;;8.04;91.29;101527.34;5012873;28;20942;-82
2022/10/19 00:05:56;;;;;;;9.53;5.20;;;;;;;8.02;91.16;101531.88;5006566;28;20509;-83
2022/10/19 00:08:24;;;;;;;8.43;4.50;;;;;;;8.00;91.31;101525.78;5009917;28;20491;-82
2022/10/19 00:10:50;;;;;;;11.47;4.97;;;;;;;7.93;91.48;101538.59;5009378;28;20487;-83
2022/10/19 00:13:17;;;;;;;6.97;5.20;;;;;;;7.87;91.25;101531.84;5017731;28;20506;-83
2022/10/19 00:15:44;;;;;;;7.93;4.33;;;;;;;7.82;91.45;101528.59;5007828;28;20502;-84
2022/10/19 00:18:12;;;;;;;6.50;3.57;;;;;;;7.79;91.24;101534.09;5005389;28;20474;-84
2022/10/19 00:20:38;;;;;;;5.97;4.20;;;;;;;7.75;91.39;101539.72;5003561;28;20491;-84
2022/10/19 00:23:05;;;;;;;8.40;5.00;;;;;;;7.71;91.29;101529.25;5017156;28;20486;-84
2022/10/19 00:25:31;;;;;;;10.67;6.90;;;;;;;7.70;92.73;101527.53;5023962;28;20501;-84
2022/10/19 00:27:58;;;;;;;13.93;5.70;;;;;;;7.76;94.04;101515.69;5023939;28;20447;-84
2022/10/19 00:30:25;;;;;;;6.60;5.13;;;;;;;7.82;94.23;101530.41;5013809;28;20570;-84
2022/10/19 00:32:51;;;;;;;11.10;4.60;;;;;;;7.79;93.77;101531.44;5024783;28;20682;-84
2022/10/19 00:35:19;;;;;;;12.33;5.20;;;;;;;7.80;93.86;101527.84;5020288;28;20474;-85
2022/10/19 00:37:46;;;;;;;8.83;4.80;;;;;;;7.80;93.49;101527.84;5020274;28;20882;-85
2022/10/19 00:40:13;;;;;;;12.17;5.03;;;;;;;7.77;93.68;101528.03;5011405;28;20475;-85
2022/10/19 00:42:39;;;;;;;10.17;5.33;;;;;;;7.76;93.12;101533.44;5004672;28;20479;-85
2022/10/19 00:45:12;;;;;;;6.17;5.50;;;;;;;7.72;93.07;101541.63;5008535;28;20517;-85
2022/10/19 00:47:38;;;;;;;7.20;5.40;;;;;;;7.69;93.07;101549.78;5024050;28;21055;-85
2022/10/19 00:50:06;;;;;;;8.50;5.50;;;;;;;7.64;92.70;101551.00;5012314;28;20456;-85
2022/10/19 00:52:34;;;;;;;8.83;4.80;;;;;;;7.56;92.77;101546.09;5004480;28;20474;-85
2022/10/19 00:55:01;;;;;;;12.57;4.50;;;;;;;7.54;92.61;101553.34;5006760;28;20459;-85
2022/10/19 00:57:29;;;;;;;12.37;4.87;;;;;;;7.53;92.42;101552.47;5014357;28;20516;-84
2022/10/19 00:59:56;;;;;;;8.83;5.60;;;;;;;7.51;92.45;101565.00;5021201;28;20458;-84
2022/10/19 01:02:22;;;;;;;8.30;5.43;;;;;;;7.52;92.42;101555.22;5014600;28;20542;-85
2022/10/19 01:04:50;;;;;;;6.63;5.80;;;;;;;7.50;92.24;101552.66;5003957;28;20488;-85
2022/10/19 01:07:18;;;;;;;8.50;4.57;;;;;;;7.47;92.03;101547.50;5003223;28;20644;-85
2022/10/19 01:09:46;;;;;;;8.50;4.77;;;;;;;7.41;92.16;101547.00;5004469;28;20511;-85
2022/10/19 01:12:23;;;;;;;9.47;4.93;;;;;;;7.36;92.07;101547.28;5003873;28;20503;-85
2022/10/19 01:15:02;;;;;;;9.43;4.90;;;;;;;7.31;91.98;101542.22;5004146;28;20467;-83
2022/10/19 01:17:35;;;;;;;7.87;4.87;;;;;;;7.30;91.66;101539.63;5011315;28;20604;-83
2022/10/19 01:20:33;;;;;;;10.73;4.50;;;;;;;7.29;91.54;101541.44;5023513;28;20479;-84
2022/10/19 01:23:16;;;;;;;7.27;4.47;;;;;;;7.24;91.29;101535.53;4996085;28;20528;-84
2022/10/19 01:25:52;;;;;;;6.33;3.80;;;;;;;7.19;91.08;101531.41;5023848;28;20543;-84
2022/10/19 01:28:30;;;;;;;5.57;3.90;;;;;;;7.13;90.85;101530.81;5008428;28;20460;-83
2022/10/19 01:31:02;;;;;;;6.77;4.03;;;;;;;7.09;90.93;101534.59;5003872;28;20475;-82
2022/10/19 01:33:38;;;;;;;5.73;3.70;;;;;;;7.07;90.56;101548.94;5005133;28;20459;-83
2022/10/19 01:36:13;;;;;;;7.27;4.00;;;;;;;7.02;90.59;101546.50;5003348;28;20496;-84
2022/10/19 01:38:43;;;;;;;5.40;3.77;;;;;;;7.00;90.27;101553.72;5005190;28;20488;-84
2022/10/19 01:41:15;;;;;;;9.30;4.17;;;;;;;7.03;90.48;101553.56;5003671;28;20638;-83
2022/10/19 01:43:46;;;;;;;12.17;4.83;;;;;;;7.02;90.34;101551.84;5004648;28;20563;-83
2022/10/19 01:46:18;;;;;;;10.73;4.30;;;;;;;6.97;90.38;101556.53;5003467;28;20552;-83
2022/10/19 01:48:48;;;;;;;7.70;5.00;;;;;;;6.97;90.45;101544.09;5004698;28;20495;-83
2022/10/19 01:51:17;;;;;;;5.87;4.20;;;;;;;7.02;90.78;101545.66;5002936;28;20503;-84
2022/10/19 01:53:47;;;;;;;10.20;5.40;;;;;;;7.05;90.79;101549.00;5004521;28;20464;-84
2022/10/19 01:56:14;;;;;;;9.30;4.37;;;;;;;7.01;90.92;101547.44;5002660;28;20487;-84
2022/10/19 01:58:42;;;;;;;8.57;4.47;;;;;;;6.95;91.05;101548.66;5006601;28;20483;-83
2022/10/19 02:01:11;;;;;;;7.60;4.70;;;;;;;6.87;90.97;101548.22;5002785;28;20496;-83
2022/10/19 02:03:40;;;;;;;7.23;4.53;;;;;;;6.90;91.08;101553.38;5003160;28;20504;-84
2022/10/19 02:06:09;;;;;;;11.73;3.53;;;;;;;6.84;90.95;101547.53;5009791;28;20506;-84
2022/10/19 02:08:39;;;;;;;10.53;4.90;;;;;;;6.75;90.71;101543.56;5005940;28;20496;-84
2022/10/19 02:11:06;;;;;;;6.40;3.70;;;;;;;6.76;90.78;101540.00;5002447;28;20526;-83
2022/10/19 02:13:33;;;;;;;6.00;4.60;;;;;;;6.71;90.71;101542.88;5003488;28;20467;-83
2022/10/19 02:16:02;;;;;;;4.50;4.10;;;;;;;6.62;91.28;101543.41;5007614;28;20555;-83
2022/10/19 02:18:31;;;;;;;8.93;6.27;;;;;;;6.58;91.54;101539.19;5006656;28;20494;-83
2022/10/19 02:21:00;;;;;;;8.97;4.33;;;;;;;6.58;91.56;101541.84;5006623;28;20582;-80
2022/10/19 02:23:27;;;;;;;8.93;3.97;;;;;;;6.54;91.26;101535.81;5023100;28;20507;-81
2022/10/19 02:25:54;;;;;;;6.37;4.13;;;;;;;6.52;91.38;101542.19;5017497;28;20533;-81
2022/10/19 02:28:21;;;;;;;7.93;4.83;;;;;;;6.53;91.51;101534.13;5002261;28;20503;-81
2022/10/19 02:30:48;;;;;;;7.27;4.07;;;;;;;6.48;91.49;101532.66;5003177;28;20487;-81
2022/10/19 02:33:15;;;;;;;4.70;3.60;;;;;;;6.44;91.71;101536.41;5022275;28;20458;-81
2022/10/19 02:35:42;;;;;;;6.90;4.03;;;;;;;6.38;91.69;101543.75;5019993;28;20482;-81
2022/10/19 02:38:11;;;;;;;5.93;4.77;;;;;;;6.36;91.62;101537.69;5002814;28;20495;-81
2022/10/19 02:40:41;;;;;;;6.93;4.50;;;;;;;6.38;91.84;101542.91;5002314;28;20483;-81
2022/10/19 02:43:10;;;;;;;6.27;4.67;;;;;;;6.32;91.91;101540.56;4983089;28;21122;-81
2022/10/19 02:45:41;;;;;;;7.43;4.83;;;;;;;6.29;92.06;101544.25;4982154;28;20547;-82
2022/10/19 02:48:11;;;;;;;15.50;4.60;;;;;;;6.29;92.07;101535.44;5010125;28;20471;-81
2022/10/19 02:50:37;;;;;;;7.50;5.30;;;;;;;6.29;92.20;101532.78;5001064;28;20787;-81
2022/10/19 02:53:04;;;;;;;7.97;4.53;;;;;;;6.28;92.01;101539.03;5021276;28;20443;-81
2022/10/19 02:55:32;;;;;;;6.40;4.83;;;;;;;6.30;91.73;101532.72;5020938;28;20601;-81
2022/10/19 02:57:59;;;;;;;8.70;4.50;;;;;;;6.30;91.65;101530.06;5004242;28;20542;-82
2022/10/19 03:00:25;;;;;;;10.13;4.67;;;;;;;6.32;91.42;101529.94;5013658;28;20506;-82
2022/10/19 03:02:52;;;;;;;9.47;4.77;;;;;;;6.26;91.49;101541.75;5022026;28;20521;-82
2022/10/19 03:05:18;;;;;;;4.27;3.87;;;;;;;6.22;91.31;101529.59;5009653;28;20524;-83
2022/10/19 03:07:45;;;;;;;5.53;4.53;;;;;;;6.23;91.31;101528.63;5001997;28;20547;-83
2022/10/19 03:10:12;;;;;;;6.57;4.87;;;;;;;6.21;91.00;101530.53;5010975;28;20577;-83
2022/10/19 03:12:40;;;;;;;5.60;4.40;;;;;;;6.20;90.81;101534.13;5018425;28;20503;-82
2022/10/19 03:15:08;;;;;;;6.10;4.20;;;;;;;6.22;90.92;101529.59;5001649;28;20472;-82
2022/10/19 03:17:34;;;;;;;10.50;4.93;;;;;;;6.31;90.91;101534.41;5004178;28;20496;-82
2022/10/19 03:20:01;;;;;;;6.50;4.80;;;;;;;6.41;91.20;101529.47;5021418;28;20471;-82
2022/10/19 03:22:27;;;;;;;10.13;4.40;;;;;;;6.51;91.26;101525.38;5021354;28;20475;-83
2022/10/19 03:24:54;;;;;;;7.80;4.27;;;;;;;6.63;91.54;101530.97;5016610;28;20838;-83
2022/10/19 03:27:21;;;;;;;8.07;4.50;;;;;;;6.68;91.68;101521.78;5001673;28;20515;-83
2022/10/19 03:29:49;;;;;;;8.20;4.97;;;;;;;6.77;91.80;101526.63;5021494;28;20767;-83
2022/10/19 03:32:15;;;;;;;6.80;4.40;;;;;;;6.81;91.39;101529.09;5018483;28;21045;-83
2022/10/19 03:34:42;;;;;;;8.10;4.73;;;;;;;6.87;91.22;101537.56;5011047;28;20491;-82
2022/10/19 03:37:09;;;;;;;7.10;3.93;;;;;;;7.01;90.97;101530.63;5001504;28;20977;-83
2022/10/19 03:39:35;;;;;;;7.20;4.60;;;;;;;7.00;90.95;101528.94;5003712;28;20944;-81
2022/10/19 03:42:02;;;;;;;7.77;4.37;;;;;;;7.04;90.72;101527.81;5001417;28;20499;-82
2022/10/19 03:44:29;;;;;;;6.57;4.00;;;;;;;6.91;91.16;101532.94;5020357;28;20478;-81
2022/10/19 03:46:57;;;;;;;6.57;4.33;;;;;;;7.12;90.86;101531.75;5005335;28;20494;-81
2022/10/19 03:49:23;;;;;;;11.00;3.77;;;;;;;7.02;90.16;101540.34;5001925;28;20503;-82
2022/10/19 03:51:50;;;;;;;5.87;3.97;;;;;;;7.03;89.70;101542.03;5008097;28;20515;-81
2022/10/19 03:54:17;;;;;;;6.57;4.00;;;;;;;7.23;87.50;101533.81;5022524;28;20619;-82
2022/10/19 03:56:43;;;;;;;5.57;3.20;;;;;;;7.22;87.82;101542.75;5003326;28;20499;-81
2022/10/19 03:59:12;;;;;;;5.60;3.73;;;;;;;7.11;88.25;101545.13;5003527;28;20488;-81
2022/10/19 04:01:40;;;;;;;6.63;4.00;;;;;;;7.24;88.26;101543.50;5005429;28;20503;-82
2022/10/19 04:04:11;;;;;;;7.07;3.13;;;;;;;7.27;88.07;101545.13;5010358;28;20479;-82
2022/10/19 04:06:40;;;;;;;6.50;3.70;;;;;;;7.20;88.16;101539.28;5003718;28;20500;-81
2022/10/19 04:09:08;;;;;;;5.80;3.13;;;;;;;7.34;87.44;101543.81;5008331;28;20655;-81
2022/10/19 04:11:35;;;;;;;4.20;2.93;;;;;;;7.32;87.76;101537.75;5008527;28;20489;-85
2022/10/19 04:14:02;;;;;;;5.97;3.87;;;;;;;7.26;88.29;101548.75;5007770;28;20482;-83
2022/10/19 04:16:30;;;;;;;3.90;3.23;;;;;;;7.38;88.96;101553.38;5005175;28;20933;-83
2022/10/19 04:18:57;;;;;;;6.47;3.23;;;;;;;7.45;88.73;101537.91;5004947;28;20467;-82
2022/10/19 04:21:27;;;;;;;23.13;5.13;;;;;;;7.40;88.96;101551.47;5003829;28;20499;-83
2022/10/19 04:23:57;;;;;;;3.13;2.83;;;;;;;7.47;89.26;101547.50;5012926;28;20517;-82
2022/10/19 04:26:24;;;;;;;6.17;3.77;;;;;;;7.54;89.33;101545.34;5006604;28;20471;-83
2022/10/19 04:28:50;;;;;;;4.60;3.30;;;;;;;7.54;89.52;101543.53;5004343;28;20495;-82
2022/10/19 04:31:17;;;;;;;8.63;4.23;;;;;;;7.58;90.03;101546.88;5003151;28;20503;-81
2022/10/19 04:33:43;;;;;;;6.27;3.73;;;;;;;7.58;90.11;101541.56;5009614;28;20486;-82
2022/10/19 04:36:11;;;;;;;10.93;5.93;;;;;;;7.69;90.06;101535.59;5008700;28;20502;-81
2022/10/19 04:38:39;;;;;;;4.33;3.90;;;;;;;7.84;89.29;101540.00;5005659;28;20893;-80
2022/10/19 04:41:08;;;;;;;9.10;4.27;;;;;;;7.95;89.00;101538.53;5004388;28;20671;-81
2022/10/19 04:43:35;;;;;;;6.50;4.60;;;;;;;7.89;89.55;101540.59;5023042;28;20505;-81
2022/10/19 04:46:03;;;;;;;7.27;4.80;;;;;;;7.58;90.67;101530.91;5000878;28;20511;-80
2022/10/19 04:48:30;;;;;;;5.67;3.83;;;;;;;7.43;92.60;101532.66;5005416;28;20447;-81
2022/10/19 04:50:56;;;;;;;10.77;5.60;;;;;;;7.64;93.17;101541.22;5005344;28;20595;-80
2022/10/19 04:53:23;;;;;;;8.23;4.93;;;;;;;7.84;93.07;101534.69;5013084;28;20471;-81
2022/10/19 04:55:51;;;;;;;10.30;5.70;;;;;;;7.81;92.75;101544.66;5006396;28;20483;-81
2022/10/19 04:58:18;;;;;;;10.13;6.20;;;;;;;8.05;92.86;101537.03;5004593;28;20986;-81
2022/10/19 05:00:45;;;;;;;7.30;5.10;;;;;;;7.92;92.54;101542.25;5008815;28;20887;-81
2022/10/19 05:03:11;;;;;;;6.67;5.27;;;;;;;8.03;92.52;101545.09;5023781;28;20980;-80
2022/10/19 05:05:38;;;;;;;5.20;4.30;;;;;;;8.23;92.65;101541.25;5019574;28;20502;-80
2022/10/19 05:08:05;;;;;;;10.83;5.60;;;;;;;8.22;92.23;101542.19;5012650;28;20756;-81
2022/10/19 05:10:32;;;;;;;7.10;4.73;;;;;;;8.10;92.15;101542.94;5003618;28;20538;-80
2022/10/19 05:13:02;;;;;;;7.33;5.07;;;;;;;8.31;91.66;101540.75;5003609;28;20483;-81
2022/10/19 05:15:28;;;;;;;5.80;4.90;;;;;;;8.32;91.55;101538.97;5003137;28;20535;-81
2022/10/19 05:17:55;;;;;;;7.30;6.17;;;;;;;8.25;91.45;101533.16;5000144;28;20558;-81
2022/10/19 05:20:22;;;;;;;13.00;8.60;;;;;;;8.09;92.05;101538.56;5013432;28;20455;-81
2022/10/19 05:22:48;;;;;;;6.73;5.40;;;;;;;8.27;91.95;101542.75;5022153;28;20490;-81
2022/10/19 05:25:15;;;;;;;7.47;4.63;;;;;;;7.94;92.51;101544.81;5011964;28;20455;-80
2022/10/19 05:27:42;;;;;;;6.97;6.37;;;;;;;7.83;93.11;101543.66;5007496;28;20483;-81
2022/10/19 05:30:13;;;;;;;12.30;5.57;;;;;;;7.95;92.81;101531.41;5006081;28;20482;-81
2022/10/19 05:32:39;;;;;;;13.40;6.10;;;;;;;8.04;92.61;101541.50;5014711;28;20679;-80
2022/10/19 05:35:06;;;;;;;6.33;4.87;;;;;;;8.16;92.52;101539.91;5003125;28;20484;-82
2022/10/19 05:37:33;;;;;;;6.10;5.33;;;;;;;8.35;92.63;101528.09;5006953;28;20545;-84
2022/10/19 05:40:00;;;;;;;11.20;6.00;;;;;;;8.41;92.91;101530.41;5008615;28;20476;-83
2022/10/19 05:42:26;;;;;;;13.00;5.77;;;;;;;8.30;92.66;101531.91;5009832;28;20498;-81
2022/10/19 05:44:53;;;;;;;9.20;5.13;;;;;;;8.19;92.70;101533.53;5011515;28;20535;-82
2022/10/19 05:47:21;;;;;;;9.07;5.40;;;;;;;8.27;92.60;101533.91;5010758;28;20507;-83
2022/10/19 05:49:48;;;;;;;6.93;5.50;;;;;;;8.36;92.48;101525.34;5002980;28;20515;-83
2022/10/19 05:52:16;;;;;;;9.23;5.20;;;;;;;8.42;92.61;101522.34;5003157;28;21001;-83
2022/10/19 05:54:43;;;;;;;7.83;5.90;;;;;;;8.42;92.42;101521.44;5003754;28;20512;-83
2022/10/19 05:57:09;;;;;;;7.27;5.67;;;;;;;8.42;92.43;101529.44;5003153;28;20530;-82
2022/10/19 05:59:36;;;;;;;7.80;5.87;;;;;;;8.46;92.16;101520.34;5003488;28;20479;-82
2022/10/19 06:02:03;;;;;;;10.37;6.00;;;;;;;8.48;91.79;101524.59;5002787;28;20567;-84
2022/10/19 06:04:32;;;;;;;11.00;6.40;;;;;;;8.42;91.80;101524.09;5003068;28;20522;-82
2022/10/19 06:06:59;;;;;;;8.37;6.23;;;;;;;8.45;91.77;101519.50;5006671;28;20482;-83
2022/10/19 06:09:25;;;;;;;12.50;6.40;;;;;;;8.56;91.17;101526.81;5012468;28;20467;-83
2022/10/19 06:11:52;;;;;;;7.53;5.90;;;;;;;8.36;91.57;101524.50;5006899;28;20513;-83
2022/10/19 06:14:18;;;;;;;10.20;6.60;;;;;;;8.57;91.13;101525.84;5003893;28;20522;-83
2022/10/19 06:16:45;;;;;;;9.33;7.37;;;;;;;8.48;90.99;101527.28;4998679;28;20558;-83
2022/10/19 06:19:12;;;;;;;8.73;5.73;;;;;;;8.54;91.32;101528.72;5001749;28;20449;-84
2022/10/19 06:21:40;;;;;;;7.13;6.47;;;;;;;8.60;91.70;101532.81;5002937;28;20472;-85
2022/10/19 06:24:07;;;;;;;7.93;6.97;;;;;;;8.58;91.78;101529.38;5005710;28;20479;-85
2022/10/19 06:26:35;;;;;;;7.73;5.90;;;;;;;8.64;91.79;101535.16;5008395;28;20500;-85
2022/10/19 06:29:03;;;;;;;7.90;6.43;;;;;;;8.71;91.80;101540.13;5003780;28;20450;-86
2022/10/19 06:31:31;;;;;;;8.20;7.40;;;;;;;8.88;91.45;101539.91;5004007;28;21055;-84
2022/10/19 06:33:57;;;;;;;8.37;7.57;;;;;;;8.89;90.38;101546.09;5011103;28;20513;-84
2022/10/19 06:36:26;;;;;;;12.30;8.00;;;;;;;8.99;90.49;101553.44;5001831;28;20506;-83
2022/10/19 06:38:55;;;;;;;9.47;8.47;;;;;;;8.85;91.34;101550.75;5021088;28;20462;-82
2022/10/19 06:41:22;;;;;;;11.07;8.23;;;;;;;9.00;91.22;101564.94;4997615;28;20490;-82
2022/10/19 06:43:49;;;;;;;13.00;9.40;;;;;;;9.07;91.10;101558.25;5006274;28;20520;-82
2022/10/19 06:46:19;;;;;;;12.70;8.70;;;;;;;9.18;91.06;101560.22;5004982;28;20491;-83
2022/10/19 06:48:49;;;;;;;15.60;10.90;;;;;;;9.40;89.53;101559.69;5003004;28;20471;-82
2022/10/19 06:51:16;;;;;;;17.97;10.50;;;;;;;9.43;88.94;101563.00;5006777;28;20494;-83
2022/10/19 06:53:43;;;;;;;11.50;9.00;;;;;;;9.59;89.29;101562.00;4992101;28;20463;-82
2022/10/19 06:56:11;;;;;;;10.93;8.37;;;;;;;9.53;89.46;101557.06;5002468;28;20725;-83
2022/10/19 06:58:38;;;;;;;13.60;8.73;;;;;;;9.60;89.69;101559.25;5003358;28;20514;-83
2022/10/19 07:01:07;;;;;;;9.97;8.97;;;;;;;9.64;89.44;101557.22;5001478;28;21033;-83
2022/10/19 07:03:34;;;;;;;16.40;8.73;;;;;;;9.86;88.54;101550.41;5013317;28;20501;-80
2022/10/19 07:06:02;;;;;;;9.90;8.90;;;;;;;10.02;88.33;101550.25;4999946;28;20507;-81
2022/10/19 07:08:30;;;;;;;12.57;8.60;;;;;;;10.01;87.81;101565.41;5010300;28;20548;-80
2022/10/19 07:10:58;;;;;;;12.90;8.93;;;;;;;10.13;88.12;101559.22;5005905;28;20521;-81
2022/10/19 07:13:27;;;;;;;13.00;8.73;;;;;;;10.29;87.98;101558.16;5004792;28;20452;-80
2022/10/19 07:15:57;;;;;;;9.27;8.00;;;;;;;10.56;86.84;101568.78;5001432;28;20483;-81
2022/10/19 07:18:24;;;;;;;10.03;7.80;;;;;;;10.68;86.31;101561.72;5001121;28;20463;-81
2022/10/19 07:20:55;;;;;;;9.77;7.87;;;;;;;10.86;84.15;101560.38;5000027;28;20503;-80
2022/10/19 07:23:21;;;;;;;8.77;7.40;;;;;;;10.93;83.72;101568.84;5002319;28;20747;-79
2022/10/19 07:25:48;;;;;;;10.00;7.63;;;;;;;10.88;84.44;101562.94;5001332;28;20480;-80
2022/10/19 07:28:15;;;;;;;11.87;8.60;;;;;;;10.92;84.43;101570.66;5019672;28;20473;-81
2022/10/19 07:30:43;;;;;;;12.17;8.00;;;;;;;11.24;82.77;101562.09;5008018;28;20487;-80
2022/10/19 07:33:10;;;;;;;15.80;9.07;;;;;;;11.26;82.36;101570.03;5005559;28;20444;-80
2022/10/19 07:35:37;;;;;;;10.90;7.33;;;;;;;11.66;81.74;101575.09;5009603;28;20522;-78
2022/10/19 07:38:04;;;;;;;11.70;8.53;;;;;;;11.75;80.33;101576.22;5000859;28;20460;-81
2022/10/19 07:40:31;;;;;;;15.20;8.00;;;;;;;12.02;79.88;101562.59;5005278;28;20483;-80
2022/10/19 07:42:57;;;;;;;15.87;7.80;;;;;;;11.32;81.50;101561.56;5009831;28;20464;-80
2022/10/19 07:45:24;;;;;;;11.47;8.33;;;;;;;12.00;79.95;101559.19;5002254;28;20530;-80
2022/10/19 07:47:52;;;;;;;9.97;7.27;;;;;;;12.40;77.71;101564.13;5008848;28;20837;-80
2022/10/19 07:50:19;;;;;;;9.10;7.07;;;;;;;12.18;78.78;101575.66;5005070;28;20493;-80
2022/10/19 07:52:46;;;;;;;15.77;6.67;;;;;;;12.36;78.46;101568.00;5004648;28;20459;-80
2022/10/19 07:55:12;;;;;;;7.90;7.10;;;;;;;12.72;77.27;101558.88;5009255;28;20460;-80
2022/10/19 07:57:39;;;;;;;12.07;6.73;;;;;;;12.91;75.79;101565.47;5007521;28;20452;-81
2022/10/19 08:00:07;;;;;;;10.07;6.37;;;;;;;12.75;76.27;101561.34;5003711;28;20447;-79
2022/10/19 08:02:34;;;;;;;6.40;5.90;;;;;;;12.87;75.51;101559.50;4980516;28;20469;-80
2022/10/19 08:05:02;;;;;;;7.23;5.70;;;;;;;12.85;74.85;101563.31;4984434;28;20503;-82
2022/10/19 08:07:29;;;;;;;9.67;6.20;;;;;;;12.60;76.41;101565.22;4984320;28;21096;-82
2022/10/19 08:09:55;;;;;;;8.57;6.00;;;;;;;13.19;74.28;101570.31;4984169;28;20457;-81
2022/10/19 08:12:22;;;;;;;10.37;6.20;;;;;;;13.35;72.94;101561.03;5007473;28;20480;-82
2022/10/19 08:14:49;;;;;;;9.30;5.30;;;;;;;13.51;72.17;101563.31;5004547;28;20455;-81
2022/10/19 08:17:16;;;;;;;9.27;5.37;;;;;;;14.03;71.30;101558.06;5001126;28;20515;-82
2022/10/19 08:19:43;;;;;;;9.70;5.23;;;;;;;13.87;70.34;101562.06;5001172;28;20472;-82
2022/10/19 08:22:11;;;;;;;13.57;7.33;;;;;;;13.72;72.02;101568.72;5003435;28;20479;-81
2022/10/19 08:24:38;;;;;;;9.37;5.87;;;;;;;13.27;74.43;101567.00;5002779;28;20480;-81
2022/10/19 08:27:05;;;;;;;8.40;5.40;;;;;;;13.69;71.75;101575.19;5002881;28;20487;-81
2022/10/19 08:29:31;;;;;;;9.60;5.20;;;;;;;13.55;72.22;101565.59;4996834;28;20501;-81
2022/10/19 08:31:58;;;;;;;6.43;5.30;;;;;;;13.89;71.04;101567.31;4984924;28;20476;-80
2022/10/19 08:34:25;;;;;;;8.80;5.67;;;;;;;13.72;70.40;101572.25;4984322;28;20468;-81
2022/10/19 08:36:52;;;;;;;6.00;5.40;;;;;;;13.72;70.91;101561.50;4986640;28;20511;-82
2022/10/19 08:39:20;;;;;;;9.90;5.10;;;;;;;14.67;67.74;101565.97;5004343;28;20464;-81
2022/10/19 08:41:55;;;;;;;9.93;5.83;;;;;;;14.97;66.43;101561.53;5003246;28;20491;-82
2022/10/19 08:44:57;;;;;;;6.67;5.30;;;;;;;14.53;68.20;101566.28;5008857;28;20483;-83
2022/10/19 08:47:38;;;;;;;10.70;5.40;;;;;;;14.18;68.98;101567.47;5002096;28;20475;-83
2022/10/19 08:50:16;;;;;;;8.13;5.40;;;;;;;13.89;69.54;101576.22;5003557;28;20464;-82
2022/10/19 08:52:43;;;;;;;7.43;5.33;;;;;;;13.86;69.43;101560.34;5006618;28;20536;-81
2022/10/19 08:55:14;;;;;;;9.83;5.50;;;;;;;13.75;70.13;101561.25;5019817;28;20495;-81
2022/10/19 08:57:46;;;;;;;10.07;5.30;;;;;;;13.46;72.04;101562.84;5018312;28;20471;-81
2022/10/19 09:00:17;;;;;;;7.87;4.97;;;;;;;13.87;71.60;101564.75;5011317;28;20470;-82
2022/10/19 09:02:54;;;;;;;7.80;6.00;;;;;;;14.30;69.37;101552.13;5007603;28;20472;-82
2022/10/19 09:05:29;;;;;;;6.73;5.43;;;;;;;15.27;67.03;101554.34;5003742;28;20455;-82
2022/10/19 09:07:56;;;;;;;8.53;6.77;;;;;;;15.60;63.28;101550.41;4983757;28;21229;-84
2022/10/19 09:10:27;;;;;;;5.60;4.70;;;;;;;15.80;62.40;101547.78;5004873;28;20508;-82
2022/10/19 09:12:58;;;;;;;8.10;4.93;;;;;;;15.07;63.38;101542.72;5018127;28;21096;-81
2022/10/19 09:15:28;;;;;;;7.23;4.57;;;;;;;15.17;64.92;101548.97;5017724;28;20495;-80
2022/10/19 09:17:54;;;;;;;9.77;4.70;;;;;;;15.28;64.72;101544.47;5002937;28;20466;-82
2022/10/19 09:20:23;;;;;;;8.87;5.00;;;;;;;14.97;65.17;101547.22;5002776;28;20460;-81
2022/10/19 09:22:58;;;;;;;8.53;5.20;;;;;;;14.95;66.39;101554.59;5004371;28;20448;-82
2022/10/19 09:25:28;;;;;;;5.60;5.00;;;;;;;15.36;64.64;101548.16;5002082;28;20451;-81
2022/10/19 09:28:06;;;;;;;9.83;4.77;;;;;;;14.73;65.50;101553.78;5006804;28;20466;-81
2022/10/19 09:30:35;;;;;;;7.90;4.37;;;;;;;14.25;67.23;101557.94;5017519;28;20503;-82
2022/10/19 09:33:02;;;;;;;8.00;5.00;;;;;;;14.48;67.08;101560.47;5015435;28;20443;-82
2022/10/19 09:35:33;;;;;;;8.13;4.00;;;;;;;14.29;66.83;101562.03;5008282;28;20546;-81
2022/10/19 09:38:00;;;;;;;13.60;4.70;;;;;;;14.13;67.24;101554.44;5003659;28;20441;-81
2022/10/19 09:40:30;;;;;;;5.47;4.17;;;;;;;14.26;67.55;101564.16;5002647;28;20478;-81
2022/10/19 09:42:58;;;;;;;9.50;4.40;;;;;;;14.50;65.83;101551.25;5009598;28;20444;-81
2022/10/19 09:45:32;;;;;;;9.23;4.10;;;;;;;14.71;64.46;101552.22;5015749;28;20526;-81
2022/10/19 09:48:00;;;;;;;8.23;3.97;;;;;;;14.60;65.93;101543.25;5021377;28;20920;-81
2022/10/19 09:50:29;;;;;;;10.87;5.30;;;;;;;14.52;64.48;101543.03;5015612;28;20883;-81
2022/10/19 09:52:57;;;;;;;5.10;3.77;;;;;;;15.15;62.16;101545.53;5002577;28;20499;-81
2022/10/19 09:55:34;;;;;;;6.20;4.00;;;;;;;16.91;57.16;101546.19;5007640;28;20903;-82
2022/10/19 09:58:03;;;;;;;4.83;3.27;;;;;;;16.88;56.38;101551.88;5014998;28;20577;-82
2022/10/19 10:00:36;;;;;;;7.37;3.50;;;;;;;16.72;55.06;101546.25;5007442;28;20599;-82
2022/10/19 10:03:04;;;;;;;9.53;3.00;;;;;;;16.69;55.76;101543.84;5016884;28;20462;-81
2022/10/19 10:05:33;;;;;;;6.50;3.43;;;;;;;16.71;55.22;101550.78;5006948;28;20476;-81
2022/10/19 10:08:00;;;;;;;3.30;1.73;;;;;;;16.48;51.60;101549.47;5007584;28;20487;-81
2022/10/19 10:10:31;;;;;;;14.93;3.20;;;;;;;15.65;55.65;101547.31;5015516;28;20498;-81
2022/10/19 10:12:58;;;;;;;7.13;2.10;;;;;;;15.29;57.05;101552.38;5000485;28;20456;-81
2022/10/19 10:15:27;;;;;;;4.63;1.53;;;;;;;14.99;56.68;101550.63;5005107;28;21012;-81
2022/10/19 10:17:55;;;;;;;4.23;2.10;;;;;;;14.67;59.28;101544.41;5000824;28;20448;-82
2022/10/19 10:20:26;;;;;;;6.07;1.90;;;;;;;14.41;58.74;101545.81;5002908;28;20651;-82
2022/10/19 10:22:57;;;;;;;3.43;2.50;;;;;;;14.37;57.96;101547.91;5007837;28;20473;-81
2022/10/19 10:25:28;;;;;;;5.57;1.90;;;;;;;14.24;58.51;101550.84;5003914;28;20507;-82
2022/10/19 10:27:58;;;;;;;7.20;1.87;;;;;;;14.25;58.82;101562.44;5006198;28;20468;-82
2022/10/19 10:30:27;;;;;;;5.17;2.63;;;;;;;14.31;58.11;101570.84;5001818;28;20448;-81
2022/10/19 10:32:54;;;;;;;3.30;2.17;;;;;;;13.78;58.94;101578.94;5011894;28;20452;-82
2022/10/19 10:35:23;;;;;;;7.53;2.10;;;;;;;13.88;60.51;101573.66;5002030;28;20492;-83
2022/10/19 10:37:50;;;;;;;6.67;1.97;;;;;;;13.98;60.62;101571.91;5004160;28;20425;-82
2022/10/19 10:40:22;;;;;;;3.67;2.13;;;;;;;13.98;59.65;101565.66;5006138;28;20488;-82
2022/10/19 10:42:51;;;;;;;6.20;1.50;;;;;;;13.79;59.66;101559.16;5011956;28;20822;-82
2022/10/19 10:45:23;;;;;;;3.03;2.10;;;;;;;13.64;59.51;101560.44;5001859;28;20515;-81
2022/10/19 10:47:50;;;;;;;7.50;1.87;;;;;;;13.87;58.92;101551.31;5001240;28;20978;-82
2022/10/19 10:50:20;;;;;;;2.73;1.10;;;;;;;13.64;58.90;101555.06;5001721;28;20479;-82
2022/10/19 10:53:00;;;;;;;4.20;2.13;;;;;;;14.19;58.08;101546.84;5004123;28;20582;-83
2022/10/19 10:55:27;;;;;;;3.17;2.47;;;;;;;14.06;57.48;101539.84;5003249;28;20559;-82
2022/10/19 10:58:05;;;;;;;6.57;1.60;;;;;;;13.98;58.10;101526.19;5005324;28;20472;-82
2022/10/19 11:00:33;;;;;;;2.40;1.20;;;;;;;14.16;58.10;101526.44;5021127;28;20474;-82
2022/10/19 11:03:05;;;;;;;5.33;1.13;;;;;;;14.09;57.84;101517.19;5016609;28;20528;-83
2022/10/19 11:05:34;;;;;;;2.30;1.33;;;;;;;14.48;58.07;101509.34;5005333;28;20468;-83
2022/10/19 11:08:05;;;;;;;8.60;1.90;;;;;;;14.12;56.45;101507.00;5004976;28;20478;-82
2022/10/19 11:10:35;;;;;;;7.60;1.87;;;;;;;14.06;57.69;101506.69;5006022;28;20464;-81
2022/10/19 11:13:06;;;;;;;4.90;1.40;;;;;;;14.20;57.79;101500.13;5024437;28;20451;-82
2022/10/19 11:15:37;;;;;;;4.73;1.70;;;;;;;14.28;57.56;101487.69;5027300;28;20466;-81
2022/10/19 11:18:12;;;;;;;5.33;1.57;;;;;;;14.16;58.40;101491.47;5010388;28;20448;-81
2022/10/19 11:20:44;;;;;;;5.43;1.90;;;;;;;13.89;58.44;101487.50;5008777;28;20506;-81
2022/10/19 11:23:15;;;;;;;12.67;3.30;;;;;;;14.32;59.35;101477.53;5013912;28;20451;-81
2022/10/19 11:25:50;;;;;;;3.20;1.67;;;;;;;14.09;58.58;101477.69;5012673;28;20475;-82
2022/10/19 11:28:29;;;;;;;4.60;1.63;;;;;;;14.76;57.12;101485.38;5027725;28;20493;-82
2022/10/19 11:30:59;;;;;;;5.13;1.50;;;;;;;14.32;57.68;101483.78;5012020;28;20503;-82
2022/10/19 11:33:36;;;;;;;5.53;1.00;;;;;;;14.09;59.02;101482.22;5016116;28;20436;-82
2022/10/19 11:36:06;;;;;;;3.77;1.30;;;;;;;14.35;59.36;101479.94;5015836;28;20459;-82